sensor_id;sensor_type;location;lat;lon;timestamp;P1;durP1;ratioP1;P2;durP2;ratioP2
32329;SDS011;18807;52.434;13.238;2023-08-06T00:03:31;8.40;;;7.20;;
32329;SDS011;18807;52.434;13.238;2023-08-06T00:11:06;7.93;;;7.13;;
32329;SDS011;18807;52.434;13.238;2023-08-06T00:18:42;9.48;;;7.00;;
32329;SDS011;18807;52.434;13.238;2023-08-06T00:26:16;7.63;;;6.85;;
32329;SDS011;18807;52.434;13.238;2023-08-06T00:33:54;7.75;;;6.95;;
32329;SDS011;18807;52.434;13.238;2023-08-06T00:41:28;7.57;;;6.78;;
32329;SDS011;18807;52.434;13.238;2023-08-06T00:49:04;8.47;;;7.13;;
32329;SDS011;18807;52.434;13.238;2023-08-06T00:56:39;10.02;;;8.02;;
32329;SDS011;18807;52.434;13.238;2023-08-06T01:04:17;11.65;;;7.18;;
32329;SDS011;18807;52.434;13.238;2023-08-06T01:11:54;7.88;;;7.07;;
32329;SDS011;18807;52.434;13.238;2023-08-06T01:19:39;9.30;;;7.78;;
32329;SDS011;18807;52.434;13.238;2023-08-06T01:27:17;10.10;;;8.05;;
32329;SDS011;18807;52.434;13.238;2023-08-06T01:34:59;8.63;;;7.70;;
32329;SDS011;18807;52.434;13.238;2023-08-06T01:42:37;8.40;;;7.38;;
32329;SDS011;18807;52.434;13.238;2023-08-06T01:50:11;8.82;;;7.43;;
32329;SDS011;18807;52.434;13.238;2023-08-06T01:57:48;8.48;;;7.50;;
32329;SDS011;18807;52.434;13.238;2023-08-06T02:05:22;8.63;;;7.32;;
32329;SDS011;18807;52.434;13.238;2023-08-06T02:12:57;9.15;;;7.20;;
32329;SDS011;18807;52.434;13.238;2023-08-06T02:20:31;8.95;;;7.57;;
32329;SDS011;18807;52.434;13.238;2023-08-06T02:28:07;8.70;;;6.63;;
32329;SDS011;18807;52.434;13.238;2023-08-06T02:35:42;7.60;;;6.72;;
32329;SDS011;18807;52.434;13.238;2023-08-06T02:43:18;8.47;;;7.03;;
32329;SDS011;18807;52.434;13.238;2023-08-06T02:50:52;9.20;;;7.97;;
32329;SDS011;18807;52.434;13.238;2023-08-06T02:58:28;7.73;;;6.93;;
32329;SDS011;18807;52.434;13.238;2023-08-06T03:06:02;7.97;;;6.53;;
32329;SDS011;18807;52.434;13.238;2023-08-06T03:13:38;10.47;;;8.80;;
32329;SDS011;18807;52.434;13.238;2023-08-06T03:21:12;10.25;;;8.07;;
32329;SDS011;18807;52.434;13.238;2023-08-06T03:28:48;9.50;;;7.87;;
32329;SDS011;18807;52.434;13.238;2023-08-06T03:36:24;9.95;;;8.52;;
32329;SDS011;18807;52.434;13.238;2023-08-06T03:44:00;10.27;;;8.30;;
32329;SDS011;18807;52.434;13.238;2023-08-06T03:51:36;12.15;;;8.23;;
32329;SDS011;18807;52.434;13.238;2023-08-06T03:59:12;9.83;;;7.93;;
32329;SDS011;18807;52.434;13.238;2023-08-06T04:06:46;8.38;;;6.93;;
32329;SDS011;18807;52.434;13.238;2023-08-06T04:14:21;12.30;;;8.73;;
32329;SDS011;18807;52.434;13.238;2023-08-06T04:21:55;9.00;;;7.35;;
32329;SDS011;18807;52.434;13.238;2023-08-06T04:29:32;8.82;;;7.00;;
32329;SDS011;18807;52.434;13.238;2023-08-06T04:37:06;8.32;;;6.97;;
32329;SDS011;18807;52.434;13.238;2023-08-06T04:44:42;8.63;;;7.13;;
32329;SDS011;18807;52.434;13.238;2023-08-06T04:52:16;8.02;;;6.72;;
32329;SDS011;18807;52.434;13.238;2023-08-06T04:59:52;7.38;;;6.70;;
32329;SDS011;18807;52.434;13.238;2023-08-06T05:07:26;10.57;;;7.53;;
32329;SDS011;18807;52.434;13.238;2023-08-06T05:15:02;7.80;;;6.07;;
32329;SDS011;18807;52.434;13.238;2023-08-06T05:22:36;9.48;;;7.22;;
32329;SDS011;18807;52.434;13.238;2023-08-06T05:30:13;7.65;;;6.72;;
32329;SDS011;18807;52.434;13.238;2023-08-06T05:37:47;9.20;;;7.10;;
32329;SDS011;18807;52.434;13.238;2023-08-06T05:45:24;8.93;;;7.35;;
32329;SDS011;18807;52.434;13.238;2023-08-06T05:52:59;8.40;;;6.80;;
32329;SDS011;18807;52.434;13.238;2023-08-06T06:00:35;8.60;;;6.60;;
32329;SDS011;18807;52.434;13.238;2023-08-06T06:08:09;7.40;;;5.90;;
32329;SDS011;18807;52.434;13.238;2023-08-06T06:15:45;7.50;;;6.80;;
32329;SDS011;18807;52.434;13.238;2023-08-06T06:23:20;8.20;;;5.85;;
32329;SDS011;18807;52.434;13.238;2023-08-06T06:31:00;8.03;;;6.87;;
32329;SDS011;18807;52.434;13.238;2023-08-06T06:38:36;7.78;;;6.25;;
32329;SDS011;18807;52.434;13.238;2023-08-06T06:46:12;7.17;;;6.20;;
32329;SDS011;18807;52.434;13.238;2023-08-06T06:53:47;7.55;;;6.47;;
32329;SDS011;18807;52.434;13.238;2023-08-06T07:01:24;8.73;;;7.18;;
32329;SDS011;18807;52.434;13.238;2023-08-06T07:08:59;9.07;;;7.10;;
32329;SDS011;18807;52.434;13.238;2023-08-06T07:16:35;7.30;;;6.43;;
32329;SDS011;18807;52.434;13.238;2023-08-06T07:24:10;8.70;;;6.97;;
32329;SDS011;18807;52.434;13.238;2023-08-06T07:31:45;7.33;;;6.57;;
32329;SDS011;18807;52.434;13.238;2023-08-06T07:39:20;7.32;;;6.55;;
32329;SDS011;18807;52.434;13.238;2023-08-06T07:46:56;7.40;;;6.25;;
32329;SDS011;18807;52.434;13.238;2023-08-06T07:54:31;9.10;;;7.05;;
32329;SDS011;18807;52.434;13.238;2023-08-06T08:02:07;7.38;;;6.57;;
32329;SDS011;18807;52.434;13.238;2023-08-06T08:09:41;7.60;;;6.80;;
32329;SDS011;18807;52.434;13.238;2023-08-06T08:17:17;8.38;;;7.30;;
32329;SDS011;18807;52.434;13.238;2023-08-06T08:24:52;8.38;;;7.47;;
32329;SDS011;18807;52.434;13.238;2023-08-06T08:32:27;9.90;;;7.60;;
32329;SDS011;18807;52.434;13.238;2023-08-06T08:40:02;7.68;;;6.93;;
32329;SDS011;18807;52.434;13.238;2023-08-06T08:47:39;8.63;;;7.30;;
32329;SDS011;18807;52.434;13.238;2023-08-06T08:55:15;10.43;;;7.85;;
32329;SDS011;18807;52.434;13.238;2023-08-06T09:02:51;9.47;;;7.73;;
32329;SDS011;18807;52.434;13.238;2023-08-06T09:10:29;8.40;;;7.47;;
32329;SDS011;18807;52.434;13.238;2023-08-06T09:18:10;8.90;;;7.28;;
32329;SDS011;18807;52.434;13.238;2023-08-06T09:25:45;10.68;;;9.13;;
32329;SDS011;18807;52.434;13.238;2023-08-06T09:48:35;9.63;;;7.70;;
32329;SDS011;18807;52.434;13.238;2023-08-06T09:56:10;9.88;;;8.88;;
32329;SDS011;18807;52.434;13.238;2023-08-06T10:03:49;9.60;;;8.60;;
32329;SDS011;18807;52.434;13.238;2023-08-06T10:11:27;11.77;;;10.23;;
32329;SDS011;18807;52.434;13.238;2023-08-06T10:19:05;10.32;;;9.30;;
32329;SDS011;18807;52.434;13.238;2023-08-06T10:26:44;10.45;;;8.55;;
32329;SDS011;18807;52.434;13.238;2023-08-06T10:34:20;11.52;;;8.95;;
32329;SDS011;18807;52.434;13.238;2023-08-06T10:41:54;11.38;;;9.50;;
32329;SDS011;18807;52.434;13.238;2023-08-06T10:49:33;11.68;;;9.00;;
32329;SDS011;18807;52.434;13.238;2023-08-06T10:57:08;10.98;;;9.52;;
32329;SDS011;18807;52.434;13.238;2023-08-06T11:04:45;9.52;;;8.55;;
32329;SDS011;18807;52.434;13.238;2023-08-06T11:12:20;10.10;;;9.10;;
32329;SDS011;18807;52.434;13.238;2023-08-06T11:19:58;9.00;;;8.10;;
32329;SDS011;18807;52.434;13.238;2023-08-06T11:27:33;10.52;;;8.68;;
32329;SDS011;18807;52.434;13.238;2023-08-06T11:35:13;9.77;;;8.77;;
32329;SDS011;18807;52.434;13.238;2023-08-06T11:42:48;10.45;;;7.93;;
32329;SDS011;18807;52.434;13.238;2023-08-06T11:50:26;10.48;;;8.40;;
32329;SDS011;18807;52.434;13.238;2023-08-06T11:58:03;9.55;;;8.48;;
32329;SDS011;18807;52.434;13.238;2023-08-06T12:05:41;8.63;;;7.72;;
32329;SDS011;18807;52.434;13.238;2023-08-06T12:13:15;10.00;;;8.98;;
32329;SDS011;18807;52.434;13.238;2023-08-06T12:20:51;8.73;;;7.90;;
32329;SDS011;18807;52.434;13.238;2023-08-06T12:28:27;8.77;;;7.88;;
32329;SDS011;18807;52.434;13.238;2023-08-06T12:36:06;8.32;;;7.55;;
32329;SDS011;18807;52.434;13.238;2023-08-06T12:43:40;8.35;;;7.47;;
32329;SDS011;18807;52.434;13.238;2023-08-06T12:51:16;8.77;;;7.87;;
32329;SDS011;18807;52.434;13.238;2023-08-06T12:58:52;7.55;;;6.85;;
32329;SDS011;18807;52.434;13.238;2023-08-06T13:06:31;3.20;;;2.42;;
32329;SDS011;18807;52.434;13.238;2023-08-06T13:14:09;4.60;;;2.63;;
32329;SDS011;18807;52.434;13.238;2023-08-06T13:22:02;3.05;;;2.75;;
32329;SDS011;18807;52.434;13.238;2023-08-06T13:29:42;3.35;;;2.65;;
32329;SDS011;18807;52.434;13.238;2023-08-06T13:37:34;4.45;;;3.30;;
32329;SDS011;18807;52.434;13.238;2023-08-06T13:45:11;4.22;;;3.55;;
32329;SDS011;18807;52.434;13.238;2023-08-06T13:52:47;5.53;;;4.00;;
32329;SDS011;18807;52.434;13.238;2023-08-06T14:00:29;4.68;;;3.90;;
32329;SDS011;18807;52.434;13.238;2023-08-06T14:08:07;4.97;;;4.10;;
32329;SDS011;18807;52.434;13.238;2023-08-06T14:15:42;8.32;;;6.43;;
32329;SDS011;18807;52.434;13.238;2023-08-06T14:23:21;7.55;;;5.90;;
32329;SDS011;18807;52.434;13.238;2023-08-06T14:30:55;7.80;;;6.43;;
32329;SDS011;18807;52.434;13.238;2023-08-06T14:38:31;9.98;;;6.47;;
32329;SDS011;18807;52.434;13.238;2023-08-06T14:46:21;7.70;;;6.13;;
32329;SDS011;18807;52.434;13.238;2023-08-06T14:54:03;7.00;;;6.00;;
32329;SDS011;18807;52.434;13.238;2023-08-06T15:01:44;9.77;;;7.18;;
32329;SDS011;18807;52.434;13.238;2023-08-06T15:09:46;7.38;;;6.32;;
32329;SDS011;18807;52.434;13.238;2023-08-06T15:18:12;7.97;;;7.03;;
32329;SDS011;18807;52.434;13.238;2023-08-06T15:26:02;9.17;;;6.73;;
32329;SDS011;18807;52.434;13.238;2023-08-06T15:33:46;7.60;;;5.27;;
32329;SDS011;18807;52.434;13.238;2023-08-06T15:50:10;9.05;;;8.15;;
32329;SDS011;18807;52.434;13.238;2023-08-06T15:57:54;6.30;;;5.45;;
32329;SDS011;18807;52.434;13.238;2023-08-06T16:05:32;7.82;;;6.03;;
32329;SDS011;18807;52.434;13.238;2023-08-06T16:13:10;9.18;;;7.00;;
32329;SDS011;18807;52.434;13.238;2023-08-06T16:20:44;8.60;;;7.15;;
32329;SDS011;18807;52.434;13.238;2023-08-06T16:28:21;10.38;;;7.45;;
32329;SDS011;18807;52.434;13.238;2023-08-06T16:35:55;10.27;;;8.02;;
32329;SDS011;18807;52.434;13.238;2023-08-06T16:43:31;10.98;;;8.43;;
32329;SDS011;18807;52.434;13.238;2023-08-06T16:51:06;9.73;;;7.28;;
32329;SDS011;18807;52.434;13.238;2023-08-06T16:58:42;9.35;;;6.70;;
32329;SDS011;18807;52.434;13.238;2023-08-06T17:06:17;8.13;;;7.13;;
32329;SDS011;18807;52.434;13.238;2023-08-06T17:13:53;7.57;;;6.38;;
32329;SDS011;18807;52.434;13.238;2023-08-06T17:21:28;8.43;;;6.63;;
32329;SDS011;18807;52.434;13.238;2023-08-06T17:29:04;8.02;;;5.63;;
32329;SDS011;18807;52.434;13.238;2023-08-06T17:36:37;6.43;;;5.72;;
32329;SDS011;18807;52.434;13.238;2023-08-06T17:44:13;6.10;;;5.43;;
32329;SDS011;18807;52.434;13.238;2023-08-06T17:51:48;6.82;;;5.65;;
32329;SDS011;18807;52.434;13.238;2023-08-06T17:59:24;7.13;;;5.43;;
32329;SDS011;18807;52.434;13.238;2023-08-06T18:06:59;6.53;;;4.88;;
32329;SDS011;18807;52.434;13.238;2023-08-06T18:14:35;7.13;;;5.20;;
32329;SDS011;18807;52.434;13.238;2023-08-06T18:22:10;7.60;;;5.15;;
32329;SDS011;18807;52.434;13.238;2023-08-06T18:29:48;6.78;;;6.05;;
32329;SDS011;18807;52.434;13.238;2023-08-06T18:37:40;7.32;;;5.43;;
32329;SDS011;18807;52.434;13.238;2023-08-06T18:45:21;5.85;;;5.25;;
32329;SDS011;18807;52.434;13.238;2023-08-06T18:52:56;6.93;;;5.50;;
32329;SDS011;18807;52.434;13.238;2023-08-06T19:00:33;5.68;;;4.85;;
32329;SDS011;18807;52.434;13.238;2023-08-06T19:08:13;6.63;;;5.85;;
32329;SDS011;18807;52.434;13.238;2023-08-06T19:15:49;7.13;;;5.55;;
32329;SDS011;18807;52.434;13.238;2023-08-06T19:23:23;7.13;;;5.82;;
32329;SDS011;18807;52.434;13.238;2023-08-06T19:31:01;8.00;;;6.07;;
32329;SDS011;18807;52.434;13.238;2023-08-06T19:38:35;8.10;;;6.20;;
32329;SDS011;18807;52.434;13.238;2023-08-06T19:46:11;8.10;;;5.80;;
32329;SDS011;18807;52.434;13.238;2023-08-06T19:53:46;7.75;;;6.50;;
32329;SDS011;18807;52.434;13.238;2023-08-06T20:01:22;7.28;;;5.97;;
32329;SDS011;18807;52.434;13.238;2023-08-06T20:08:59;7.15;;;6.00;;
32329;SDS011;18807;52.434;13.238;2023-08-06T20:16:35;6.60;;;5.53;;
32329;SDS011;18807;52.434;13.238;2023-08-06T20:24:09;7.72;;;5.45;;
32329;SDS011;18807;52.434;13.238;2023-08-06T20:31:45;8.20;;;5.00;;
32329;SDS011;18807;52.434;13.238;2023-08-06T20:39:19;6.60;;;4.90;;
32329;SDS011;18807;52.434;13.238;2023-08-06T20:46:54;12.07;;;5.00;;
32329;SDS011;18807;52.434;13.238;2023-08-06T20:54:30;6.68;;;4.68;;
32329;SDS011;18807;52.434;13.238;2023-08-06T21:02:07;5.43;;;4.68;;
32329;SDS011;18807;52.434;13.238;2023-08-06T21:09:41;5.13;;;4.00;;
32329;SDS011;18807;52.434;13.238;2023-08-06T21:17:17;4.87;;;4.23;;
32329;SDS011;18807;52.434;13.238;2023-08-06T21:24:51;9.57;;;4.35;;
32329;SDS011;18807;52.434;13.238;2023-08-06T21:32:27;5.37;;;3.63;;
32329;SDS011;18807;52.434;13.238;2023-08-06T21:40:01;4.38;;;3.35;;
32329;SDS011;18807;52.434;13.238;2023-08-06T21:47:38;4.90;;;4.00;;
32329;SDS011;18807;52.434;13.238;2023-08-06T21:55:12;6.85;;;3.50;;
32329;SDS011;18807;52.434;13.238;2023-08-06T22:02:48;6.43;;;4.07;;
32329;SDS011;18807;52.434;13.238;2023-08-06T22:10:22;4.30;;;2.97;;
32329;SDS011;18807;52.434;13.238;2023-08-06T22:17:58;4.85;;;2.92;;
32329;SDS011;18807;52.434;13.238;2023-08-06T22:25:34;4.65;;;2.97;;
32329;SDS011;18807;52.434;13.238;2023-08-06T22:33:10;3.70;;;3.30;;
32329;SDS011;18807;52.434;13.238;2023-08-06T22:40:47;3.80;;;2.80;;
32329;SDS011;18807;52.434;13.238;2023-08-06T22:48:23;5.63;;;3.15;;
32329;SDS011;18807;52.434;13.238;2023-08-06T22:55:57;4.45;;;2.67;;
32329;SDS011;18807;52.434;13.238;2023-08-06T23:03:36;4.07;;;2.83;;
32329;SDS011;18807;52.434;13.238;2023-08-06T23:11:10;4.68;;;2.60;;
32329;SDS011;18807;52.434;13.238;2023-08-06T23:18:48;2.90;;;2.35;;
32329;SDS011;18807;52.434;13.238;2023-08-06T23:26:22;4.03;;;2.50;;
32329;SDS011;18807;52.434;13.238;2023-08-06T23:33:59;4.28;;;2.92;;
32329;SDS011;18807;52.434;13.238;2023-08-06T23:41:34;4.60;;;2.30;;
32329;SDS011;18807;52.434;13.238;2023-08-06T23:49:10;4.23;;;2.70;;
32329;SDS011;18807;52.434;13.238;2023-08-06T23:56:45;3.60;;;2.60;;
